createdAt,value
2023-04-17T00:00:14.887Z,10.27
2023-04-17T00:02:42.952Z,9.95
2023-04-17T00:05:10.852Z,9.70
2023-04-17T00:07:39.206Z,10.93
2023-04-17T00:10:10.837Z,10.02
2023-04-17T00:12:39.131Z,10.55
2023-04-17T00:15:07.886Z,10.30
2023-04-17T00:17:35.594Z,10.25
2023-04-17T00:20:05.683Z,11.35
2023-04-17T00:22:33.856Z,10.95
2023-04-17T00:25:01.525Z,10.52
2023-04-17T00:27:32.938Z,11.23
2023-04-17T00:30:01.526Z,9.90
2023-04-17T00:32:29.294Z,10.70
2023-04-17T00:34:56.915Z,11.13
2023-04-17T00:37:24.588Z,10.02
2023-04-17T00:39:52.289Z,9.68
2023-04-17T00:42:20.027Z,10.55
2023-04-17T00:44:49.022Z,10.32
2023-04-17T00:47:16.819Z,10.73
2023-04-17T00:49:44.537Z,10.18
2023-04-17T00:52:13.243Z,9.85
2023-04-17T00:54:41.326Z,9.52
2023-04-17T00:57:09.100Z,11.23
2023-04-17T00:59:38.618Z,10.98
2023-04-17T01:02:07.701Z,11.50
2023-04-17T01:04:35.438Z,10.95
2023-04-17T01:07:03.450Z,10.38
2023-04-17T01:09:31.212Z,10.77
2023-04-17T01:12:17.335Z,10.55
2023-04-17T01:14:45.010Z,10.45
2023-04-17T01:17:15.360Z,10.52
2023-04-17T01:19:43.122Z,9.35
2023-04-17T01:22:10.896Z,11.43
2023-04-17T01:24:39.960Z,10.07
2023-04-17T01:27:07.710Z,10.82
2023-04-17T01:29:35.664Z,10.90
2023-04-17T01:32:03.348Z,10.05
2023-04-17T01:34:31.228Z,10.75
2023-04-17T01:36:58.895Z,11.18
2023-04-17T01:39:27.589Z,10.07
2023-04-17T01:41:56.622Z,10.73
2023-04-17T01:44:24.555Z,10.43
2023-04-17T01:46:52.191Z,10.10
2023-04-17T01:49:19.857Z,12.43
2023-04-17T01:51:47.499Z,12.00
2023-04-17T01:54:16.030Z,11.63
2023-04-17T01:56:43.664Z,10.90
2023-04-17T01:59:12.948Z,10.68
2023-04-17T02:01:40.671Z,10.80
2023-04-17T02:04:08.633Z,10.73
2023-04-17T02:06:36.553Z,10.18
2023-04-17T02:09:04.660Z,10.18
2023-04-17T02:11:32.429Z,10.60
2023-04-17T02:14:00.287Z,10.52
2023-04-17T02:16:29.640Z,10.82
2023-04-17T02:18:57.450Z,10.63
2023-04-17T02:21:26.860Z,10.57
2023-04-17T02:23:54.518Z,9.43
2023-04-17T02:26:23.417Z,10.93
2023-04-17T02:28:52.708Z,10.02
2023-04-17T02:31:23.902Z,11.82
2023-04-17T02:33:52.931Z,9.57
2023-04-17T02:36:20.576Z,11.23
2023-04-17T02:38:48.290Z,9.77
2023-04-17T02:41:15.915Z,10.18
2023-04-17T02:43:43.494Z,11.43
2023-04-17T02:46:11.365Z,10.75
2023-04-17T02:48:39.071Z,10.68
2023-04-17T02:51:08.052Z,10.07
2023-04-17T02:53:35.707Z,11.07
2023-04-17T02:56:03.339Z,9.00
2023-04-17T02:58:31.071Z,10.15
2023-04-17T03:01:03.367Z,10.50
2023-04-17T03:03:35.225Z,10.60
2023-04-17T03:06:03.885Z,10.50
2023-04-17T03:08:35.728Z,12.73
2023-04-17T03:11:03.821Z,10.85
2023-04-17T03:13:31.479Z,12.27
2023-04-17T03:16:00.270Z,10.57
2023-04-17T03:18:27.959Z,10.48
2023-04-17T03:20:55.630Z,10.55
2023-04-17T03:23:23.347Z,11.23
2023-04-17T03:25:52.551Z,10.77
2023-04-17T03:28:21.799Z,9.68
2023-04-17T03:30:50.258Z,11.10
2023-04-17T03:33:18.428Z,10.32
2023-04-17T03:35:47.118Z,10.27
2023-04-17T03:38:14.802Z,11.43
2023-04-17T03:40:42.780Z,10.85
2023-04-17T03:43:11.683Z,11.73
2023-04-17T03:45:39.324Z,10.57
2023-04-17T03:48:07.242Z,11.05
2023-04-17T03:50:34.978Z,9.73
2023-04-17T03:53:02.798Z,9.55
2023-04-17T03:55:30.700Z,10.85
2023-04-17T03:57:58.339Z,9.60
2023-04-17T04:00:28.543Z,11.20
2023-04-17T04:02:56.334Z,10.60
2023-04-17T04:05:24.505Z,10.45
2023-04-17T04:07:52.374Z,10.05
2023-04-17T04:10:20.046Z,10.10
2023-04-17T04:12:47.771Z,9.35
2023-04-17T04:15:15.353Z,11.77
2023-04-17T04:17:44.383Z,10.93
2023-04-17T04:20:12.168Z,10.13
2023-04-17T04:22:39.822Z,10.07
2023-04-17T04:25:08.664Z,9.63
2023-04-17T04:27:37.347Z,10.57
2023-04-17T04:30:05.812Z,10.82
2023-04-17T04:32:33.818Z,10.02
2023-04-17T04:35:02.806Z,10.10
2023-04-17T04:37:31.733Z,10.30
2023-04-17T04:40:04.321Z,10.13
2023-04-17T04:42:32.051Z,11.25
2023-04-17T04:44:59.712Z,10.15
2023-04-17T04:47:27.309Z,10.90
2023-04-17T04:49:54.981Z,11.15
2023-04-17T04:52:24.160Z,10.75
2023-04-17T04:54:51.873Z,11.57
2023-04-17T04:57:19.643Z,11.10
2023-04-17T04:59:47.376Z,11.07
2023-04-17T05:02:15.172Z,11.50
2023-04-17T05:04:43.033Z,11.75
2023-04-17T05:07:12.061Z,11.65
2023-04-17T05:09:42.486Z,11.85
2023-04-17T05:12:10.071Z,10.23
2023-04-17T05:14:37.696Z,9.93
2023-04-17T05:17:05.609Z,10.18
2023-04-17T05:19:33.258Z,10.80
2023-04-17T05:22:01.510Z,10.65
2023-04-17T05:24:29.270Z,12.23
2023-04-17T05:26:58.181Z,11.25
2023-04-17T05:29:27.516Z,11.73
2023-04-17T05:31:55.304Z,10.18
2023-04-17T05:34:23.086Z,10.57
2023-04-17T05:36:50.704Z,11.25
2023-04-17T05:39:19.026Z,11.15
2023-04-17T05:41:46.690Z,10.15
2023-04-17T05:44:15.885Z,9.23
2023-04-17T05:46:43.616Z,10.90
2023-04-17T05:49:11.384Z,12.00
2023-04-17T05:51:39.132Z,11.45
2023-04-17T05:54:07.080Z,10.75
2023-04-17T05:56:35.002Z,9.63
2023-04-17T05:59:02.675Z,10.65
2023-04-17T06:01:32.485Z,10.35
2023-04-17T06:04:02.004Z,9.98
2023-04-17T06:06:30.510Z,10.25
2023-04-17T06:08:58.290Z,9.88
2023-04-17T06:11:25.938Z,10.40
2023-04-17T06:13:53.688Z,9.82
2023-04-17T06:16:21.819Z,11.10
2023-04-17T06:18:51.181Z,11.98
2023-04-17T06:21:18.877Z,11.57
2023-04-17T06:23:46.611Z,10.40
2023-04-17T06:26:14.322Z,11.00
2023-04-17T06:28:41.989Z,11.43
2023-04-17T06:31:09.836Z,10.00
2023-04-17T06:33:37.648Z,9.77
2023-04-17T06:36:07.448Z,10.75
2023-04-17T06:38:35.180Z,11.38
2023-04-17T06:41:03.248Z,11.07
2023-04-17T06:43:30.909Z,11.45
2023-04-17T06:45:58.704Z,11.40
2023-04-17T06:48:26.439Z,9.77
2023-04-17T06:50:54.177Z,11.43
2023-04-17T06:53:23.271Z,9.73
2023-04-17T06:55:51.181Z,10.07
2023-04-17T06:58:18.833Z,9.93
2023-04-17T07:00:46.504Z,9.88
2023-04-17T07:03:14.955Z,11.07
2023-04-17T07:05:45.003Z,10.65
2023-04-17T07:08:15.888Z,10.27
2023-04-17T07:10:44.957Z,10.95
2023-04-17T07:13:12.704Z,9.95
2023-04-17T07:15:40.449Z,10.13
2023-04-17T07:18:10.651Z,10.68
2023-04-17T07:20:38.369Z,10.27
2023-04-17T07:23:06.056Z,10.18
2023-04-17T07:25:33.779Z,10.23
2023-04-17T07:28:04.420Z,10.38
2023-04-17T07:30:32.422Z,11.25
2023-04-17T07:33:00.342Z,9.15
2023-04-17T07:35:28.075Z,9.05
2023-04-17T07:37:58.964Z,9.43
2023-04-17T07:40:27.021Z,9.93
2023-04-17T07:42:56.154Z,9.43
2023-04-17T07:45:25.276Z,10.80
2023-04-17T07:47:53.218Z,8.90
2023-04-17T07:50:21.795Z,9.75
2023-04-17T07:52:49.594Z,8.90
2023-04-17T07:55:17.622Z,8.43
2023-04-17T07:57:46.512Z,10.23
2023-04-17T08:00:15.279Z,8.32
2023-04-17T08:02:44.814Z,9.65
2023-04-17T08:05:12.717Z,9.48
2023-04-17T08:07:41.357Z,9.40
2023-04-17T08:10:09.735Z,8.93
2023-04-17T08:12:37.504Z,8.38
2023-04-17T08:15:05.969Z,8.70
2023-04-17T08:17:33.982Z,9.30
2023-04-17T08:20:07.831Z,8.40
2023-04-17T08:22:40.059Z,7.82
2023-04-17T08:25:09.770Z,8.27
2023-04-17T08:27:37.609Z,8.20
2023-04-17T08:30:06.427Z,9.18
2023-04-17T08:32:39.063Z,8.60
2023-04-17T08:35:11.335Z,8.90
2023-04-17T08:37:39.314Z,8.73
2023-04-17T08:40:09.360Z,8.82
2023-04-17T08:42:39.774Z,9.15
2023-04-17T08:45:09.528Z,8.30
2023-04-17T08:47:37.889Z,9.52
2023-04-17T08:50:12.395Z,7.85
2023-04-17T08:52:42.291Z,8.70
2023-04-17T08:55:11.857Z,9.88
2023-04-17T08:57:55.235Z,8.95
2023-04-17T09:00:27.154Z,8.85
2023-04-17T09:02:56.943Z,8.18
2023-04-17T09:05:30.207Z,8.65
2023-04-17T09:08:09.228Z,8.57
2023-04-17T09:10:37.884Z,9.85
2023-04-17T09:13:06.286Z,10.48
2023-04-17T09:15:37.331Z,10.05
2023-04-17T09:18:06.362Z,8.98
2023-04-17T09:20:49.654Z,10.00
2023-04-17T09:23:17.289Z,7.80
2023-04-17T09:25:45.053Z,7.70
2023-04-17T09:28:14.085Z,8.48
2023-04-17T09:30:42.912Z,8.35
2023-04-17T09:33:11.734Z,7.80
2023-04-17T09:35:40.821Z,7.75
2023-04-17T09:38:08.733Z,9.48
2023-04-17T09:40:40.591Z,8.38
2023-04-17T09:43:10.450Z,6.82
2023-04-17T09:45:42.513Z,6.88
2023-04-17T09:48:12.155Z,7.28
2023-04-17T09:50:41.585Z,8.32
2023-04-17T09:53:09.700Z,7.57
2023-04-17T09:55:37.793Z,8.07
2023-04-17T09:58:07.882Z,6.28
2023-04-17T10:00:37.802Z,6.80
2023-04-17T10:03:08.125Z,6.50
2023-04-17T10:05:36.665Z,6.45
2023-04-17T10:08:06.701Z,6.88
2023-04-17T10:10:36.311Z,7.95
2023-04-17T10:13:07.848Z,6.20
2023-04-17T10:15:36.296Z,7.00
2023-04-17T10:18:20.150Z,7.45
2023-04-17T10:20:48.434Z,6.68
2023-04-17T10:23:34.242Z,6.20
2023-04-17T10:26:41.883Z,6.07
2023-04-17T10:29:10.222Z,6.47
2023-04-17T10:32:13.727Z,7.32
2023-04-17T10:34:43.862Z,6.45
2023-04-17T10:37:15.299Z,6.43
2023-04-17T10:40:01.556Z,7.38
2023-04-17T10:42:32.792Z,7.50
2023-04-17T10:45:05.247Z,7.35
2023-04-17T10:47:34.512Z,6.68
2023-04-17T10:50:04.535Z,7.10
2023-04-17T10:52:44.870Z,7.45
2023-04-17T10:55:23.052Z,6.65
2023-04-17T10:57:55.316Z,6.47
2023-04-17T11:00:32.155Z,5.75
2023-04-17T11:03:01.660Z,5.15
2023-04-17T11:05:31.168Z,7.25
2023-04-17T11:07:58.959Z,6.55
2023-04-17T11:10:28.079Z,6.22
2023-04-17T11:12:56.586Z,7.43
2023-04-17T11:15:28.660Z,7.18
2023-04-17T11:17:56.972Z,7.55
2023-04-17T11:20:26.674Z,6.03
2023-04-17T11:22:54.502Z,6.30
2023-04-17T11:25:24.000Z,6.57
2023-04-17T11:27:55.954Z,7.32
2023-04-17T11:30:31.817Z,6.25
2023-04-17T11:33:01.242Z,6.00
2023-04-17T11:35:32.893Z,6.63
2023-04-17T11:38:22.976Z,6.47
2023-04-17T11:40:53.040Z,5.40
2023-04-17T11:43:24.481Z,6.85
2023-04-17T11:45:54.122Z,7.15
2023-04-17T11:48:24.268Z,5.45
2023-04-17T11:50:56.433Z,5.40
2023-04-17T11:53:25.351Z,6.18
2023-04-17T11:56:17.994Z,5.45
2023-04-17T11:58:51.739Z,5.70
2023-04-17T12:01:21.189Z,5.97
2023-04-17T12:03:49.202Z,6.55
2023-04-17T12:06:17.320Z,5.97
2023-04-17T12:08:48.050Z,5.60
2023-04-17T12:11:17.853Z,6.05
2023-04-17T12:13:48.227Z,4.88
2023-04-17T12:16:17.412Z,6.18
2023-04-17T12:18:45.902Z,6.15
2023-04-17T12:21:13.896Z,5.45
2023-04-17T12:23:42.087Z,5.68
2023-04-17T12:26:10.398Z,5.63
2023-04-17T12:28:38.072Z,5.60
2023-04-17T12:31:06.430Z,4.80
2023-04-17T12:33:35.851Z,6.35
2023-04-17T12:36:05.208Z,5.15
2023-04-17T12:38:33.300Z,5.90
2023-04-17T12:41:01.072Z,6.68
2023-04-17T12:43:28.948Z,5.80
2023-04-17T12:45:58.255Z,6.70
2023-04-17T12:48:26.084Z,5.20
2023-04-17T12:50:55.164Z,5.00
2023-04-17T12:53:23.098Z,6.00
2023-04-17T12:55:50.943Z,6.47
2023-04-17T12:58:18.605Z,6.28
2023-04-17T13:00:47.711Z,6.88
2023-04-17T13:03:15.588Z,6.25
2023-04-17T13:05:43.558Z,4.50
2023-04-17T13:08:15.064Z,5.97
2023-04-17T13:10:43.275Z,4.30
2023-04-17T13:13:11.760Z,5.82
2023-04-17T13:15:39.505Z,4.85
2023-04-17T13:18:08.199Z,5.40
2023-04-17T13:20:35.884Z,5.45
2023-04-17T13:23:03.798Z,5.63
2023-04-17T13:25:33.449Z,5.53
2023-04-17T13:28:01.186Z,5.93
2023-04-17T13:30:32.166Z,5.93
2023-04-17T13:33:02.747Z,5.13
2023-04-17T13:35:30.535Z,5.85
2023-04-17T13:38:02.176Z,6.13
2023-04-17T13:40:30.115Z,5.45
2023-04-17T13:43:00.251Z,8.00
2023-04-17T13:45:28.202Z,5.55
2023-04-17T13:47:55.941Z,5.45
2023-04-17T13:50:23.782Z,5.97
2023-04-17T13:52:51.528Z,5.45
2023-04-17T13:55:19.390Z,5.18
2023-04-17T13:57:47.313Z,4.95
2023-04-17T14:00:18.307Z,6.43
2023-04-17T14:02:46.951Z,4.50
2023-04-17T14:05:15.188Z,4.85
2023-04-17T14:07:44.268Z,5.05
2023-04-17T14:10:12.405Z,5.90
2023-04-17T14:12:40.398Z,5.35
2023-04-17T14:15:09.180Z,5.28
2023-04-17T14:17:42.985Z,4.72
2023-04-17T14:20:11.866Z,5.10
2023-04-17T14:22:39.607Z,5.30
2023-04-17T14:25:07.949Z,5.65
2023-04-17T14:27:36.247Z,6.38
2023-04-17T14:30:04.348Z,5.30
2023-04-17T14:32:32.140Z,5.43
2023-04-17T14:35:01.234Z,4.93
2023-04-17T14:37:29.383Z,5.32
2023-04-17T14:39:57.000Z,4.68
2023-04-17T14:42:24.660Z,5.88
2023-04-17T14:44:53.364Z,4.93
2023-04-17T14:47:21.124Z,4.28
2023-04-17T14:49:49.075Z,5.72
2023-04-17T14:52:18.129Z,5.50
2023-04-17T14:54:45.790Z,4.80
2023-04-17T14:57:13.583Z,4.30
2023-04-17T14:59:41.444Z,5.63
2023-04-17T15:02:09.138Z,4.97
2023-04-17T15:04:37.070Z,5.35
2023-04-17T15:07:05.141Z,5.60
2023-04-17T15:09:34.309Z,5.35
2023-04-17T15:12:02.585Z,4.93
2023-04-17T15:14:32.622Z,4.68
2023-04-17T15:17:02.498Z,5.53
2023-04-17T15:19:30.304Z,4.88
2023-04-17T15:21:58.290Z,5.18
2023-04-17T15:24:25.830Z,5.28
2023-04-17T15:26:54.801Z,5.60
2023-04-17T15:29:24.806Z,5.97
2023-04-17T15:31:53.230Z,5.00
2023-04-17T15:34:20.892Z,5.70
2023-04-17T15:36:48.789Z,5.95
2023-04-17T15:39:18.048Z,5.10
2023-04-17T15:41:45.707Z,5.35
2023-04-17T15:44:14.856Z,5.25
2023-04-17T15:46:42.667Z,5.20
2023-04-17T15:49:10.728Z,5.82
2023-04-17T15:51:40.916Z,5.88
2023-04-17T15:54:11.777Z,6.03
2023-04-17T15:56:40.110Z,5.45
2023-04-17T15:59:07.861Z,5.10
2023-04-17T16:01:36.842Z,5.15
2023-04-17T16:04:04.896Z,5.45
2023-04-17T16:06:33.043Z,5.53
2023-04-17T16:09:01.413Z,5.60
2023-04-17T16:11:29.560Z,5.40
2023-04-17T16:13:58.817Z,5.22
2023-04-17T16:16:29.163Z,6.22
2023-04-17T16:18:58.747Z,7.55
2023-04-17T16:21:27.604Z,7.43
2023-04-17T16:23:57.288Z,5.80
2023-04-17T16:26:25.215Z,6.07
2023-04-17T16:28:53.159Z,6.53
2023-04-17T16:31:22.467Z,5.28
2023-04-17T16:33:50.224Z,5.63
2023-04-17T16:36:19.467Z,6.13
2023-04-17T16:38:47.243Z,6.18
2023-04-17T16:41:14.882Z,6.05
2023-04-17T16:43:42.924Z,6.55
2023-04-17T16:46:22.277Z,5.75
2023-04-17T16:48:56.452Z,6.00
2023-04-17T16:51:26.208Z,6.50
2023-04-17T16:53:54.218Z,6.72
2023-04-17T16:56:22.144Z,6.40
2023-04-17T16:58:49.750Z,6.90
2023-04-17T17:01:17.466Z,6.78
2023-04-17T17:03:45.371Z,6.13
2023-04-17T17:06:13.099Z,7.78
2023-04-17T17:08:46.457Z,7.07
2023-04-17T17:11:14.712Z,8.90
2023-04-17T17:13:42.297Z,7.20
2023-04-17T17:16:09.935Z,5.95
2023-04-17T17:18:37.703Z,7.07
2023-04-17T17:21:07.158Z,6.90
2023-04-17T17:23:35.236Z,7.97
2023-04-17T17:26:04.400Z,7.72
2023-04-17T17:28:32.136Z,7.00
2023-04-17T17:31:01.484Z,6.38
2023-04-17T17:33:30.116Z,6.63
2023-04-17T17:35:58.141Z,8.18
2023-04-17T17:38:28.388Z,7.43
2023-04-17T17:40:56.577Z,8.00
2023-04-17T17:43:25.580Z,7.10
2023-04-17T17:45:53.498Z,7.97
2023-04-17T17:48:21.167Z,6.72
2023-04-17T17:50:48.970Z,6.22
2023-04-17T17:53:21.386Z,6.75
2023-04-17T17:55:54.123Z,5.43
2023-04-17T17:58:25.675Z,4.90
2023-04-17T18:00:53.668Z,5.47
2023-04-17T18:03:21.536Z,5.35
2023-04-17T18:05:49.313Z,5.28
2023-04-17T18:08:17.863Z,5.20
2023-04-17T18:10:45.619Z,6.00
2023-04-17T18:13:13.669Z,5.47
2023-04-17T18:15:43.125Z,5.28
2023-04-17T18:18:10.873Z,5.60
2023-04-17T18:20:40.219Z,4.20
2023-04-17T18:23:08.114Z,5.53
2023-04-17T18:25:36.396Z,4.95
2023-04-17T18:28:06.695Z,5.80
2023-04-17T18:30:34.354Z,4.47
2023-04-17T18:33:03.414Z,5.45
2023-04-17T18:35:33.557Z,4.97
2023-04-17T18:38:01.307Z,5.45
2023-04-17T18:40:29.079Z,4.88
2023-04-17T18:42:56.696Z,4.90
2023-04-17T18:45:24.558Z,4.28
2023-04-17T18:47:54.590Z,5.07
2023-04-17T18:50:26.840Z,5.47
2023-04-17T18:52:54.763Z,4.30
2023-04-17T18:55:22.486Z,4.22
2023-04-17T18:57:50.326Z,4.07
2023-04-17T19:00:18.200Z,4.65
2023-04-17T19:02:49.481Z,4.00
2023-04-17T19:05:17.730Z,3.75
2023-04-17T19:07:46.752Z,3.72
2023-04-17T19:10:14.430Z,4.38
2023-04-17T19:12:43.363Z,4.35
2023-04-17T19:15:12.070Z,3.70
2023-04-17T19:17:39.834Z,3.92
2023-04-17T19:20:09.134Z,3.42
2023-04-17T19:22:37.139Z,4.05
2023-04-17T19:25:06.776Z,3.35
2023-04-17T19:27:34.628Z,3.50
2023-04-17T19:30:02.559Z,4.70
2023-04-17T19:32:31.877Z,3.45
2023-04-17T19:34:59.970Z,3.88
2023-04-17T19:37:28.247Z,3.30
2023-04-17T19:39:56.818Z,4.03
2023-04-17T19:42:26.574Z,3.25
2023-04-17T19:44:54.321Z,3.08
2023-04-17T19:47:24.029Z,3.70
2023-04-17T19:49:51.657Z,4.10
2023-04-17T19:52:20.481Z,3.20
2023-04-17T19:54:48.248Z,3.58
2023-04-17T19:57:15.972Z,3.65
2023-04-17T19:59:45.013Z,3.53
2023-04-17T20:02:12.936Z,3.67
2023-04-17T20:04:40.694Z,3.17
2023-04-17T20:07:10.641Z,2.88
2023-04-17T20:09:38.635Z,3.42
2023-04-17T20:12:06.950Z,3.28
2023-04-17T20:14:34.838Z,4.28
2023-04-17T20:17:03.869Z,4.03
2023-04-17T20:19:33.177Z,3.78
2023-04-17T20:22:00.820Z,5.40
2023-04-17T20:24:28.784Z,6.75
2023-04-17T20:26:56.935Z,5.80
2023-04-17T20:29:24.585Z,3.63
2023-04-17T20:31:52.398Z,4.07
2023-04-17T20:34:21.472Z,3.75
2023-04-17T20:36:49.374Z,3.53
2023-04-17T20:39:17.141Z,5.03
2023-04-17T20:41:44.724Z,4.22
2023-04-17T20:44:12.510Z,3.25
2023-04-17T20:46:40.314Z,2.83
2023-04-17T20:49:08.051Z,3.75
2023-04-17T20:51:37.123Z,3.40
2023-04-17T20:54:04.995Z,2.75
2023-04-17T20:56:32.613Z,3.65
2023-04-17T20:59:00.394Z,3.67
2023-04-17T21:01:28.060Z,3.28
2023-04-17T21:03:55.798Z,3.85
2023-04-17T21:06:24.253Z,3.92
2023-04-17T21:08:53.224Z,3.10
2023-04-17T21:11:21.400Z,2.97
2023-04-17T21:13:49.148Z,2.75
2023-04-17T21:16:16.918Z,3.85
2023-04-17T21:18:45.940Z,2.88
2023-04-17T21:21:13.569Z,3.65
2023-04-17T21:23:41.181Z,2.83
2023-04-17T21:26:10.327Z,2.83
2023-04-17T21:28:38.096Z,3.33
2023-04-17T21:31:08.427Z,2.40
2023-04-17T21:33:36.611Z,3.25
2023-04-17T21:36:04.559Z,2.78
2023-04-17T21:38:32.168Z,3.42
2023-04-17T21:40:59.694Z,2.92
2023-04-17T21:43:28.634Z,2.83
2023-04-17T21:45:57.041Z,3.10
2023-04-17T21:48:24.770Z,2.75
2023-04-17T21:50:52.662Z,3.08
2023-04-17T21:53:20.341Z,3.05
2023-04-17T21:55:47.878Z,3.47
2023-04-17T21:58:15.560Z,3.42
2023-04-17T22:00:44.469Z,3.40
2023-04-17T22:03:12.129Z,3.00
2023-04-17T22:05:40.090Z,3.47
2023-04-17T22:08:07.814Z,3.58
2023-04-17T22:10:35.467Z,3.25
2023-04-17T22:13:03.373Z,3.88
2023-04-17T22:15:31.044Z,4.03
2023-04-17T22:18:00.016Z,3.45
2023-04-17T22:20:27.789Z,3.47
2023-04-17T22:22:55.509Z,3.88
2023-04-17T22:25:23.093Z,4.15
2023-04-17T22:27:51.165Z,4.38
2023-04-17T22:30:18.827Z,3.42
2023-04-17T22:32:46.561Z,4.70
2023-04-17T22:35:15.855Z,4.30
2023-04-17T22:37:43.558Z,3.55
2023-04-17T22:40:13.868Z,4.60
2023-04-17T22:42:41.423Z,4.22
2023-04-17T22:45:09.693Z,4.40
2023-04-17T22:47:37.363Z,4.75
2023-04-17T22:50:05.777Z,5.35
2023-04-17T22:52:34.762Z,4.57
2023-04-17T22:55:02.624Z,4.55
2023-04-17T22:57:30.445Z,4.53
2023-04-17T22:59:58.125Z,4.90
2023-04-17T23:02:27.024Z,4.10
2023-04-17T23:04:54.683Z,4.05
2023-04-17T23:07:22.245Z,4.75
2023-04-17T23:09:51.336Z,4.85
2023-04-17T23:12:18.968Z,5.63
2023-04-17T23:14:48.284Z,5.32
2023-04-17T23:17:16.018Z,4.93
2023-04-17T23:19:43.607Z,5.20
2023-04-17T23:22:11.431Z,4.97
2023-04-17T23:24:39.080Z,4.60
2023-04-17T23:27:08.116Z,5.00
2023-04-17T23:29:35.708Z,4.68
2023-04-17T23:32:04.452Z,5.03
2023-04-17T23:34:32.117Z,5.05
2023-04-17T23:36:59.738Z,4.28
2023-04-17T23:39:27.442Z,5.00
2023-04-17T23:41:55.205Z,4.97
2023-04-17T23:44:24.087Z,4.47
2023-04-17T23:46:51.739Z,5.07
2023-04-17T23:49:19.341Z,4.70
2023-04-17T23:51:46.912Z,4.55
2023-04-17T23:54:15.203Z,4.38
2023-04-17T23:56:43.619Z,4.50
2023-04-17T23:59:11.340Z,4.55
